Aérodrome :
LOGIN :

S'inscrire | Disclaimer

   EN    FR    IT 

 










Légende :    VFR   VFR Marginal   IFR   IFR Intensif   IFR Très Intensif
Visi : 
Plafond : 
>= 8 km
>= 3000ft
5 à 8 km
1000 à 3000 ft
1500m à 5 km
500 à 1000 ft
800 à 1500m
200 à 500 ft
< 800m
< 200 ft
Symboles :   Orages  Brouillard  Fortes neiges  Fortes précipitations  Vent > 20 kt
SIGMETs :   Divers  Orages  Givrage  Turbulence  Onde Orograph.  Cendres Volcan.






- Altitude de l'aérodrome : 796 ft
- Code IATA : SYT


LFLN - Saint-Yan

DERNIER METAR :
  • 071830Z AUTO 15004KT 6000 OVC045 08/08 Q1022 TEMPO 3000 BR BKN010

METARs EXPIRÉS :
  • 071800Z AUTO 13002KT 7000 BKN016 OVC044 08/08 Q1022 TEMPO 3000 BR BKN010
  • 071730Z AUTO 16003KT 7000 OVC044 09/08 Q1022 BECMG 2000 BR
  • 071700Z AUTO 17003KT 7000 -DZ FEW016 SCT021 OVC036 09/08 Q1021 TEMPO BKN010 BECMG 2000 BR
  • 071630Z AUTO 18003KT 140V200 9999 -RA FEW010 SCT016 BKN025 09/08 Q1021 TEMPO BKN010 BECMG 2000 BR
  • 071600Z AUTO 16002KT 9999 SCT011 BKN024 BKN032 09/08 Q1021 TEMPO BKN010

TAF TAF LFLN
Valide du 07 à 18h jusqu'au 08 à 03h UTC


071700Z 0718/0803 18005KT 9999 FEW010 BKN020
TEMPO 0718/0803 3000 BR BKN010



MET'MAP, la Météo Aéronautique d'un coup d'oeil ! - Copyright ORBIFLY Décembre 2007 - Disclaimer

ORBIFLY MET'MAP TEAM :

Programmation & Développement : Alexandra Zaïnal
Sur une idée originale de : Baudouin d'Aumeries
Assistance à la programmation : Marc-Olivier Méhu
Soutien technique & logistique : Manuel Goepfert

Contact : metmap@orbifly.com




SOURCES & CREDITS :

   NOAA